Time;durP1;ratioP1;P1;durP2;ratioP2;P2;SDS_P1;SDS_P2;PMS_P1;PMS_P2;Temp;Humidity;BMP_temperature;BMP_pressure;BME280_temperature;BME280_humidity;BME280_pressure;Samples;Min_cycle;Max_cycle;Signal;HPM_P1;HPM_P2
2022/07/05 00:01:30;;;;;;;4.77;3.23;;;22.40;65.70;;;;;;4986207;28;20459;-84
2022/07/05 00:03:56;;;;;;;3.83;3.53;;;22.30;66.30;;;;;;4976211;28;20451;-84
2022/07/05 00:06:23;;;;;;;5.53;3.00;;;22.20;66.80;;;;;;4975492;28;20475;-82
2022/07/05 00:08:50;;;;;;;3.53;3.10;;;22.10;68.10;;;;;;4994151;28;20469;-86
2022/07/05 00:11:17;;;;;;;4.80;2.97;;;22.00;67.90;;;;;;4989612;28;20459;-83
2022/07/05 00:13:43;;;;;;;3.20;2.90;;;21.90;68.40;;;;;;4989475;28;20443;-85
2022/07/05 00:16:10;;;;;;;2.70;2.50;;;21.80;68.80;;;;;;4998906;28;20481;-85
2022/07/05 00:18:37;;;;;;;4.30;3.30;;;21.80;69.30;;;;;;4998441;28;20450;-83
2022/07/05 00:21:03;;;;;;;6.97;3.50;;;21.80;69.70;;;;;;4999225;28;20479;-85
2022/07/05 00:23:30;;;;;;;3.20;2.90;;;21.80;70.00;;;;;;4997955;28;20459;-85
2022/07/05 00:25:57;;;;;;;3.80;2.90;;;21.80;70.30;;;;;;5005846;28;20498;-84
2022/07/05 00:28:23;;;;;;;5.00;3.23;;;21.80;70.70;;;;;;4989554;28;20458;-82
2022/07/05 00:30:50;;;;;;;3.87;2.90;;;21.70;70.90;;;;;;4986983;28;20461;-84
2022/07/05 00:33:17;;;;;;;3.60;3.30;;;21.60;71.30;;;;;;4992958;28;20460;-84
2022/07/05 00:35:43;;;;;;;3.63;3.33;;;21.60;72.20;;;;;;4981247;28;20951;-83
2022/07/05 00:38:10;;;;;;;5.70;3.40;;;21.50;72.80;;;;;;4975223;28;20545;-85
2022/07/05 00:40:37;;;;;;;3.63;3.27;;;21.40;73.30;;;;;;4984106;28;20482;-82
2022/07/05 00:43:04;;;;;;;3.83;3.37;;;21.40;74.00;;;;;;4979121;28;20976;-82
2022/07/05 00:45:30;;;;;;;3.90;3.40;;;21.40;75.30;;;;;;5003346;28;20473;-83
2022/07/05 00:47:57;;;;;;;3.40;3.10;;;21.40;74.80;;;;;;5017367;28;20497;-84
2022/07/05 00:50:24;;;;;;;4.97;3.63;;;21.40;75.40;;;;;;4987278;28;20463;-83
2022/07/05 00:52:54;;;;;;;3.60;3.30;;;21.30;76.00;;;;;;4996614;28;20454;-85
2022/07/05 00:55:21;;;;;;;3.63;3.33;;;21.30;76.50;;;;;;5003130;28;20440;-84
2022/07/05 00:57:49;;;;;;;3.23;2.93;;;21.20;76.70;;;;;;5004320;28;20613;-83
2022/07/05 01:00:16;;;;;;;4.00;3.70;;;21.20;77.20;;;;;;5002203;28;20475;-82
2022/07/05 01:02:43;;;;;;;3.37;3.07;;;21.20;77.40;;;;;;4998671;28;20956;-86
2022/07/05 01:05:10;;;;;;;8.10;3.60;;;21.10;77.50;;;;;;5001451;28;20516;-84
2022/07/05 01:07:36;;;;;;;2.90;2.57;;;21.20;77.60;;;;;;4980094;28;20440;-83
2022/07/05 01:10:04;;;;;;;5.03;2.77;;;21.10;77.30;;;;;;4994472;28;20466;-83
2022/07/05 01:12:30;;;;;;;4.87;3.13;;;21.20;77.40;;;;;;4999021;28;20509;-81
2022/07/05 01:14:58;;;;;;;4.87;3.50;;;21.20;77.70;;;;;;4997146;28;20466;-82
2022/07/05 01:17:24;;;;;;;3.37;3.10;;;21.10;78.00;;;;;;5003563;28;20473;-83
2022/07/05 01:19:52;;;;;;;4.90;3.20;;;21.10;78.20;;;;;;4981311;28;20845;-85
2022/07/05 01:22:20;;;;;;;3.53;3.23;;;21.20;78.50;;;;;;5000189;28;20592;-84
2022/07/05 01:24:48;;;;;;;3.30;3.00;;;21.20;78.30;;;;;;4994053;28;20547;-84
2022/07/05 01:27:15;;;;;;;3.30;2.80;;;21.20;78.30;;;;;;4979197;28;20546;-85
2022/07/05 01:29:42;;;;;;;5.30;3.10;;;21.10;78.30;;;;;;5004012;28;20450;-83
2022/07/05 01:32:09;;;;;;;3.27;2.60;;;21.10;78.70;;;;;;4995189;28;20456;-84
2022/07/05 01:34:40;;;;;;;4.30;3.17;;;21.10;79.10;;;;;;4992023;28;20836;-82
2022/07/05 01:37:09;;;;;;;3.00;2.80;;;21.10;79.00;;;;;;4978668;28;20469;-82
2022/07/05 01:39:37;;;;;;;3.10;2.90;;;21.10;78.90;;;;;;4974685;28;20493;-82
2022/07/05 01:42:04;;;;;;;3.80;2.83;;;21.10;79.20;;;;;;4990754;28;20486;-81
2022/07/05 01:44:31;;;;;;;3.93;2.90;;;21.10;79.40;;;;;;5009123;28;20460;-84
2022/07/05 01:47:04;;;;;;;3.10;2.90;;;21.00;79.80;;;;;;4976299;28;20467;-84
2022/07/05 01:49:36;;;;;;;3.17;2.90;;;21.00;80.10;;;;;;4983065;28;20456;-83
2022/07/05 01:52:09;;;;;;;3.53;2.50;;;20.90;80.20;;;;;;5008055;28;20583;-82
2022/07/05 01:54:36;;;;;;;3.93;2.67;;;21.00;80.40;;;;;;4986115;28;20463;-82
2022/07/05 01:57:05;;;;;;;4.50;3.03;;;20.90;80.40;;;;;;4990621;28;20459;-86
2022/07/05 01:59:36;;;;;;;3.23;2.93;;;20.90;81.00;;;;;;4984450;28;20491;-80
2022/07/05 02:02:04;;;;;;;3.70;3.00;;;20.80;81.40;;;;;;4982442;28;20450;-82
2022/07/05 02:04:34;;;;;;;2.93;2.73;;;20.80;81.90;;;;;;4995000;28;20546;-82
2022/07/05 02:07:07;;;;;;;2.97;2.77;;;20.90;81.90;;;;;;5010735;28;20470;-83
2022/07/05 02:09:34;;;;;;;3.13;2.83;;;20.80;82.20;;;;;;4990992;28;20459;-82
2022/07/05 02:12:04;;;;;;;3.80;3.47;;;20.70;82.60;;;;;;5000535;28;20804;-85
2022/07/05 02:14:31;;;;;;;2.83;2.63;;;20.70;82.90;;;;;;5002176;28;20455;-83
2022/07/05 02:16:58;;;;;;;3.40;3.10;;;20.60;83.30;;;;;;4987189;28;20526;-84
2022/07/05 02:19:24;;;;;;;3.00;2.80;;;20.60;83.10;;;;;;4979314;28;20452;-82
2022/07/05 02:21:51;;;;;;;2.90;2.70;;;20.60;83.20;;;;;;5004353;28;20447;-83
2022/07/05 02:24:19;;;;;;;3.07;2.77;;;20.50;83.50;;;;;;5002968;28;20459;-83
2022/07/05 02:26:46;;;;;;;3.77;3.00;;;20.60;84.20;;;;;;5006695;28;20483;-84
2022/07/05 02:29:12;;;;;;;5.53;3.37;;;20.60;84.00;;;;;;4995021;28;20451;-85
2022/07/05 02:31:39;;;;;;;3.50;3.20;;;20.50;84.50;;;;;;4997100;28;20455;-83
2022/07/05 02:34:05;;;;;;;4.43;3.13;;;20.30;85.00;;;;;;4982079;28;20471;-84
2022/07/05 02:36:32;;;;;;;3.40;3.00;;;20.30;86.20;;;;;;4980091;28;20635;-82
2022/07/05 02:38:59;;;;;;;6.27;3.10;;;20.30;86.10;;;;;;4993718;28;20459;-84
2022/07/05 02:41:25;;;;;;;3.40;3.10;;;20.30;86.20;;;;;;5002746;28;20486;-83
2022/07/05 02:43:52;;;;;;;4.60;3.40;;;20.30;86.10;;;;;;4995896;28;20949;-84
2022/07/05 02:46:19;;;;;;;2.77;2.57;;;20.20;86.40;;;;;;4995020;28;20468;-84
2022/07/05 02:48:46;;;;;;;5.67;3.53;;;20.20;86.80;;;;;;5011583;28;20475;-83
2022/07/05 02:51:16;;;;;;;3.13;2.80;;;20.20;86.90;;;;;;5006008;28;20474;-86
2022/07/05 02:53:42;;;;;;;3.03;2.70;;;20.30;86.50;;;;;;5015692;28;20482;-85
2022/07/05 02:56:09;;;;;;;3.90;2.80;;;20.40;85.50;;;;;;4998820;28;20778;-83
2022/07/05 02:58:38;;;;;;;3.40;3.07;;;20.70;84.40;;;;;;5005293;28;20470;-84
2022/07/05 03:01:04;;;;;;;3.97;2.93;;;20.60;84.50;;;;;;5009767;28;20572;-83
2022/07/05 03:03:31;;;;;;;4.77;3.37;;;20.50;84.60;;;;;;4980436;28;20455;-83
2022/07/05 03:05:58;;;;;;;5.40;3.00;;;20.60;85.50;;;;;;4977985;28;20467;-83
2022/07/05 03:08:25;;;;;;;3.30;2.70;;;20.40;85.70;;;;;;4995290;28;20447;-85
2022/07/05 03:10:51;;;;;;;3.07;2.60;;;20.60;85.80;;;;;;5020113;28;20450;-81
2022/07/05 03:13:18;;;;;;;3.53;3.23;;;20.50;85.90;;;;;;5007344;28;20466;-83
2022/07/05 03:15:44;;;;;;;4.27;2.40;;;20.50;86.40;;;;;;5029035;28;20556;-83
2022/07/05 03:18:11;;;;;;;3.57;2.83;;;20.40;87.30;;;;;;5018194;28;20478;-84
2022/07/05 03:20:38;;;;;;;4.13;2.77;;;20.50;87.00;;;;;;4984370;28;20503;-83
2022/07/05 03:23:04;;;;;;;3.70;3.40;;;20.50;86.70;;;;;;5013283;28;20437;-86
2022/07/05 03:25:31;;;;;;;4.20;3.10;;;20.60;85.90;;;;;;5013617;28;20483;-86
2022/07/05 03:27:58;;;;;;;4.90;3.07;;;20.50;85.80;;;;;;5012195;28;20482;-85
2022/07/05 03:30:25;;;;;;;5.90;2.83;;;20.40;86.10;;;;;;4998910;28;20435;-84
2022/07/05 03:32:51;;;;;;;4.23;3.93;;;20.30;86.60;;;;;;5011973;28;20462;-83
2022/07/05 03:35:20;;;;;;;5.93;3.60;;;20.40;84.50;;;;;;5017302;28;20462;-88
2022/07/05 03:37:47;;;;;;;4.00;2.70;;;20.60;83.60;;;;;;5017002;28;20451;-88
2022/07/05 03:40:13;;;;;;;3.27;2.73;;;20.50;82.90;;;;;;5014839;28;20470;-87
2022/07/05 03:42:41;;;;;;;2.67;2.47;;;20.40;83.30;;;;;;5013405;28;20455;-85
2022/07/05 03:45:09;;;;;;;3.03;2.73;;;20.40;83.30;;;;;;5006105;28;20458;-83
2022/07/05 03:47:36;;;;;;;3.60;2.77;;;20.30;83.20;;;;;;5007255;28;20439;-81
2022/07/05 03:50:04;;;;;;;2.60;2.33;;;20.30;83.40;;;;;;4983159;28;20455;-84
2022/07/05 03:52:30;;;;;;;4.87;2.57;;;20.30;83.50;;;;;;4991204;28;20454;-83
2022/07/05 03:54:57;;;;;;;3.17;2.87;;;20.30;83.00;;;;;;4999908;28;20465;-83
2022/07/05 03:57:23;;;;;;;6.23;3.60;;;20.40;83.90;;;;;;5000486;28;20463;-84
2022/07/05 03:59:50;;;;;;;3.47;3.20;;;20.30;86.10;;;;;;4993033;28;20467;-85
2022/07/05 04:02:17;;;;;;;4.87;3.37;;;20.30;87.00;;;;;;4982337;28;20458;-83
2022/07/05 04:04:43;;;;;;;6.00;3.40;;;20.20;87.60;;;;;;5003658;28;20458;-86
2022/07/05 04:07:10;;;;;;;4.60;3.30;;;20.20;88.20;;;;;;4999807;28;20479;-86
2022/07/05 04:09:38;;;;;;;4.50;4.10;;;20.00;88.50;;;;;;4989865;28;20447;-83
2022/07/05 04:12:05;;;;;;;6.67;3.87;;;19.80;89.60;;;;;;4982849;28;20535;-84
2022/07/05 04:14:32;;;;;;;5.87;3.70;;;19.80;90.00;;;;;;4976802;28;20490;-83
2022/07/05 04:16:59;;;;;;;5.63;3.77;;;19.80;90.20;;;;;;4976312;28;20487;-83
2022/07/05 04:19:26;;;;;;;4.77;4.27;;;19.80;90.30;;;;;;4997102;28;20456;-84
2022/07/05 04:21:52;;;;;;;4.80;4.40;;;19.80;90.40;;;;;;5004466;28;20485;-82
2022/07/05 04:24:19;;;;;;;4.50;4.10;;;19.90;90.50;;;;;;4992776;28;20464;-80
2022/07/05 04:26:46;;;;;;;5.37;4.40;;;19.90;90.70;;;;;;4979731;28;20483;-83
2022/07/05 04:29:12;;;;;;;4.63;4.23;;;19.90;90.60;;;;;;4978143;28;20446;-84
2022/07/05 04:31:39;;;;;;;4.00;3.40;;;20.00;90.40;;;;;;4980717;28;20462;-84
2022/07/05 04:34:06;;;;;;;5.47;3.40;;;20.00;90.40;;;;;;4980059;28;20463;-84
2022/07/05 04:36:33;;;;;;;3.83;3.27;;;19.80;90.40;;;;;;4998216;28;20489;-83
2022/07/05 04:38:59;;;;;;;3.70;3.40;;;19.80;90.60;;;;;;5000655;28;21340;-86
2022/07/05 04:41:26;;;;;;;6.30;4.20;;;19.80;90.60;;;;;;5004744;28;20482;-84
2022/07/05 04:43:52;;;;;;;4.10;3.23;;;19.80;90.60;;;;;;5009269;28;20457;-82
2022/07/05 04:46:19;;;;;;;3.63;3.07;;;19.80;90.50;;;;;;5005485;28;20863;-81
2022/07/05 04:48:46;;;;;;;7.60;5.23;;;20.10;90.30;;;;;;4982534;28;20452;-83
2022/07/05 04:51:13;;;;;;;5.00;2.90;;;20.30;89.60;;;;;;4987395;28;20484;-85
2022/07/05 04:53:39;;;;;;;4.50;3.17;;;20.40;89.10;;;;;;5014264;28;20463;-84
2022/07/05 04:56:06;;;;;;;4.67;3.00;;;20.50;87.50;;;;;;4991510;28;20470;-83
2022/07/05 04:58:33;;;;;;;4.50;2.83;;;20.70;85.80;;;;;;5005949;28;20451;-83
2022/07/05 05:01:00;;;;;;;3.90;2.93;;;20.70;85.30;;;;;;4998521;28;20483;-83
2022/07/05 05:03:27;;;;;;;2.70;2.27;;;20.60;85.30;;;;;;5002395;28;20483;-83
2022/07/05 05:05:54;;;;;;;6.07;3.50;;;20.40;85.50;;;;;;5021670;28;20502;-85
2022/07/05 05:08:21;;;;;;;3.93;3.10;;;20.40;86.10;;;;;;4997801;28;20803;-86
2022/07/05 05:10:47;;;;;;;3.60;3.00;;;20.60;85.20;;;;;;5013387;28;20452;-85
2022/07/05 05:13:14;;;;;;;2.70;2.40;;;20.70;84.00;;;;;;5012699;28;20447;-83
2022/07/05 05:15:41;;;;;;;2.83;2.57;;;20.80;82.90;;;;;;4995056;28;20545;-83
2022/07/05 05:18:07;;;;;;;2.87;2.67;;;20.70;82.60;;;;;;4992866;28;20522;-87
2022/07/05 05:20:34;;;;;;;4.63;2.90;;;20.60;83.10;;;;;;4989005;28;20522;-85
2022/07/05 05:23:05;;;;;;;2.90;2.30;;;20.50;82.80;;;;;;5005664;28;20482;-81
2022/07/05 05:25:34;;;;;;;4.10;2.37;;;20.50;83.00;;;;;;5002559;28;20476;-85
2022/07/05 05:28:01;;;;;;;2.70;2.50;;;20.60;83.00;;;;;;5005993;28;20573;-83
2022/07/05 05:30:28;;;;;;;6.33;3.50;;;20.80;82.90;;;;;;4994679;28;20447;-82
2022/07/05 05:32:55;;;;;;;5.57;3.27;;;20.70;83.20;;;;;;5019352;28;20501;-85
2022/07/05 05:35:23;;;;;;;4.97;3.50;;;20.60;83.60;;;;;;4986538;28;20462;-82
2022/07/05 05:37:52;;;;;;;4.47;4.07;;;20.50;84.60;;;;;;5007203;28;20518;-84
2022/07/05 05:40:20;;;;;;;4.57;3.40;;;20.70;85.40;;;;;;5006532;28;20474;-82
2022/07/05 05:42:47;;;;;;;3.70;3.40;;;20.90;84.40;;;;;;5010676;28;20455;-83
2022/07/05 05:45:14;;;;;;;4.83;3.70;;;21.00;84.00;;;;;;4990520;28;20439;-84
2022/07/05 05:47:51;;;;;;;6.77;3.50;;;21.20;83.10;;;;;;5018042;28;20463;-85
2022/07/05 05:50:21;;;;;;;3.77;2.77;;;21.10;82.50;;;;;;5010444;28;20447;-85
2022/07/05 05:52:48;;;;;;;3.27;3.00;;;21.10;81.90;;;;;;4993262;28;20450;-82
2022/07/05 05:55:16;;;;;;;3.23;2.80;;;21.00;82.40;;;;;;5009688;28;20543;-80
2022/07/05 05:57:43;;;;;;;5.10;3.10;;;21.00;82.90;;;;;;4983868;28;20467;-82
2022/07/05 06:00:11;;;;;;;4.80;3.43;;;21.00;82.90;;;;;;4982198;28;21269;-80
2022/07/05 06:02:39;;;;;;;6.10;3.20;;;21.20;82.40;;;;;;4998237;28;20487;-84
2022/07/05 06:05:06;;;;;;;3.10;2.70;;;21.60;80.30;;;;;;5007919;28;20459;-81
2022/07/05 06:07:53;;;;;;;4.10;3.20;;;21.70;79.10;;;;;;4982243;28;20542;-84
2022/07/05 06:10:23;;;;;;;5.20;2.80;;;21.40;79.80;;;;;;4989391;28;20459;-84
2022/07/05 06:12:50;;;;;;;3.40;3.00;;;21.50;81.00;;;;;;5011681;28;20537;-84
2022/07/05 06:15:18;;;;;;;3.90;2.60;;;21.60;80.00;;;;;;4983666;28;20475;-85
2022/07/05 06:17:45;;;;;;;5.80;3.70;;;21.50;80.60;;;;;;5008586;28;20455;-83
2022/07/05 06:20:16;;;;;;;3.07;2.50;;;21.60;79.90;;;;;;5016441;28;20821;-83
2022/07/05 06:22:43;;;;;;;6.67;2.73;;;21.50;79.50;;;;;;4991351;28;20479;-82
2022/07/05 06:25:10;;;;;;;3.97;2.50;;;21.70;78.30;;;;;;4992529;28;20456;-83
2022/07/05 06:27:54;;;;;;;2.63;2.43;;;21.70;77.40;;;;;;5018299;28;20522;-80
2022/07/05 06:30:23;;;;;;;3.70;2.80;;;21.50;78.00;;;;;;5010939;28;20504;-87
2022/07/05 06:32:51;;;;;;;5.70;2.30;;;21.70;77.40;;;;;;5006013;28;20544;-87
2022/07/05 06:35:18;;;;;;;3.03;1.90;;;21.50;76.00;;;;;;4977904;28;20479;-82
2022/07/05 06:37:51;;;;;;;2.50;2.23;;;21.90;75.60;;;;;;5002630;28;20521;-83
2022/07/05 06:40:24;;;;;;;2.77;2.30;;;21.80;75.00;;;;;;4999140;28;20534;-83
2022/07/05 06:42:52;;;;;;;3.10;2.03;;;21.70;75.70;;;;;;4982129;28;20459;-86
2022/07/05 06:45:18;;;;;;;2.33;2.07;;;22.10;74.30;;;;;;5007466;28;20434;-86
2022/07/05 06:48:01;;;;;;;3.07;2.10;;;22.10;73.60;;;;;;4986662;28;20459;-82
2022/07/05 06:50:36;;;;;;;3.33;2.20;;;22.00;74.00;;;;;;4990015;28;20466;-83
2022/07/05 06:53:04;;;;;;;6.53;2.47;;;22.40;72.70;;;;;;4986458;28;20546;-84
2022/07/05 06:55:31;;;;;;;4.43;2.23;;;22.40;73.50;;;;;;5005846;28;20462;-86
2022/07/05 06:57:59;;;;;;;5.50;2.30;;;22.30;73.70;;;;;;4988276;28;20490;-84
2022/07/05 07:00:41;;;;;;;4.23;2.53;;;22.50;74.00;;;;;;5008314;28;20459;-84
2022/07/05 07:03:28;;;;;;;2.33;2.13;;;22.40;74.30;;;;;;5007186;28;20477;-83
2022/07/05 07:06:15;;;;;;;3.27;2.43;;;22.50;75.10;;;;;;5004597;28;20480;-82
2022/07/05 07:11:32;;;;;;;3.27;2.30;;;22.30;74.00;;;;;;5006252;28;20427;-85
2022/07/05 07:13:59;;;;;;;2.70;2.13;;;22.20;73.70;;;;;;4984741;28;20458;-81
2022/07/05 07:16:26;;;;;;;6.77;2.50;;;22.30;74.70;;;;;;5005453;28;20489;-80
2022/07/05 07:18:53;;;;;;;3.90;2.60;;;22.60;72.20;;;;;;4990287;28;20459;-80
2022/07/05 07:21:36;;;;;;;3.03;2.33;;;22.70;71.00;;;;;;5001233;28;20478;-82
2022/07/05 07:24:03;;;;;;;4.13;2.30;;;22.80;71.10;;;;;;5005312;28;20511;-84
2022/07/05 07:26:30;;;;;;;3.67;2.27;;;22.60;70.70;;;;;;5005930;28;20628;-79
2022/07/05 07:28:56;;;;;;;7.17;3.57;;;22.50;69.60;;;;;;5015114;28;20458;-80
2022/07/05 07:31:23;;;;;;;5.17;2.40;;;22.50;69.40;;;;;;5000406;28;20454;-80
2022/07/05 07:33:50;;;;;;;2.93;2.60;;;22.80;70.00;;;;;;5001066;28;20462;-81
2022/07/05 07:36:16;;;;;;;3.57;3.20;;;23.40;68.80;;;;;;5005108;28;20487;-80
2022/07/05 07:38:43;;;;;;;3.20;2.90;;;23.40;67.80;;;;;;5011634;28;20457;-80
2022/07/05 07:41:11;;;;;;;4.03;3.00;;;23.10;68.20;;;;;;5016534;28;20560;-82
2022/07/05 07:43:38;;;;;;;5.00;3.00;;;23.20;69.10;;;;;;5007263;28;20447;-82
2022/07/05 07:46:04;;;;;;;3.30;3.03;;;23.60;68.30;;;;;;5012675;28;20471;-85
2022/07/05 07:48:31;;;;;;;3.90;3.17;;;23.30;67.80;;;;;;4990713;28;20456;-85
2022/07/05 07:50:58;;;;;;;8.93;3.07;;;23.00;68.90;;;;;;5011477;28;20464;-85
2022/07/05 07:53:25;;;;;;;3.53;2.53;;;22.80;68.60;;;;;;4990530;28;20443;-83
2022/07/05 07:55:51;;;;;;;4.37;3.10;;;22.80;68.70;;;;;;4989485;28;20465;-83
2022/07/05 07:58:18;;;;;;;5.00;3.07;;;22.80;69.00;;;;;;5009496;28;20461;-84
2022/07/05 08:00:45;;;;;;;4.77;2.90;;;22.90;68.60;;;;;;5004956;28;21270;-84
2022/07/05 08:03:11;;;;;;;3.50;2.63;;;22.90;67.60;;;;;;5005945;28;20452;-83
2022/07/05 08:05:38;;;;;;;5.20;3.27;;;23.00;68.50;;;;;;5009761;28;20518;-83
2022/07/05 08:08:05;;;;;;;2.97;2.77;;;22.90;67.40;;;;;;4994142;28;20451;-82
2022/07/05 08:10:32;;;;;;;3.20;2.90;;;23.10;67.70;;;;;;5000367;28;20497;-83
2022/07/05 08:12:59;;;;;;;4.50;2.97;;;23.20;66.70;;;;;;5010323;28;20457;-81
2022/07/05 08:15:26;;;;;;;2.70;2.50;;;23.30;65.90;;;;;;5008986;28;20447;-83
2022/07/05 08:23:24;;;;;;;2.40;2.20;;;23.40;64.70;;;;;;5004379;28;20459;-83
2022/07/05 08:25:57;;;;;;;2.40;2.10;;;23.40;63.30;;;;;;5009315;28;20550;-83
2022/07/05 08:28:25;;;;;;;2.63;2.20;;;23.30;62.60;;;;;;4995396;28;20442;-83
2022/07/05 08:30:52;;;;;;;2.80;2.40;;;23.60;61.90;;;;;;4988422;28;20436;-82
2022/07/05 08:33:19;;;;;;;2.53;2.17;;;23.70;60.70;;;;;;4984297;28;20471;-83
2022/07/05 08:35:46;;;;;;;3.87;2.50;;;23.80;60.80;;;;;;5005229;28;20498;-84
2022/07/05 08:38:13;;;;;;;3.03;2.83;;;24.00;61.20;;;;;;5010390;28;20511;-83
2022/07/05 08:40:46;;;;;;;2.27;2.10;;;24.80;59.10;;;;;;4995722;28;20436;-82
2022/07/05 08:43:15;;;;;;;2.47;2.10;;;24.70;56.00;;;;;;4999930;28;20486;-84
2022/07/05 08:45:45;;;;;;;2.10;1.90;;;24.60;56.20;;;;;;5016051;28;20462;-84
2022/07/05 08:48:15;;;;;;;2.90;2.00;;;24.30;57.10;;;;;;5010982;28;20549;-83
2022/07/05 08:50:43;;;;;;;1.67;1.57;;;24.40;57.20;;;;;;5006218;28;20451;-81
2022/07/05 08:53:10;;;;;;;4.40;2.10;;;25.00;56.80;;;;;;5000220;28;20473;-83
2022/07/05 08:55:37;;;;;;;2.77;2.10;;;25.30;54.80;;;;;;5007195;28;20483;-80
2022/07/05 08:58:03;;;;;;;3.43;2.03;;;25.20;55.30;;;;;;5002876;28;20463;-83
2022/07/05 09:00:30;;;;;;;2.33;1.93;;;25.30;55.00;;;;;;5010713;28;20478;-85
2022/07/05 09:02:57;;;;;;;2.20;2.00;;;25.20;55.20;;;;;;5008684;28;20486;-85
2022/07/05 09:05:25;;;;;;;2.20;1.87;;;25.60;54.30;;;;;;4990168;28;20447;-81
2022/07/05 09:08:00;;;;;;;2.50;1.70;;;25.60;52.60;;;;;;5002356;28;20523;-84
2022/07/05 09:10:29;;;;;;;3.33;2.37;;;26.60;51.70;;;;;;4990845;28;20883;-81
2022/07/05 09:12:57;;;;;;;3.10;2.20;;;26.50;51.40;;;;;;5005048;28;20470;-83
2022/07/05 09:15:24;;;;;;;3.50;2.00;;;26.90;51.40;;;;;;4988021;28;20530;-82
2022/07/05 09:17:51;;;;;;;2.93;1.97;;;27.70;49.30;;;;;;4988330;28;20469;-84
2022/07/05 09:20:19;;;;;;;2.00;1.90;;;27.90;47.90;;;;;;5000631;28;20466;-86
2022/07/05 09:22:49;;;;;;;2.53;2.30;;;27.90;47.50;;;;;;5003858;28;20504;-81
2022/07/05 09:25:23;;;;;;;2.63;2.10;;;27.10;48.50;;;;;;5001881;28;20897;-84
2022/07/05 09:27:50;;;;;;;2.00;1.63;;;26.40;50.10;;;;;;4986816;28;20864;-79
2022/07/05 09:30:30;;;;;;;6.63;2.80;;;26.50;49.70;;;;;;5007316;28;20431;-82
2022/07/05 09:33:15;;;;;;;3.30;2.00;;;26.70;48.80;;;;;;4998252;28;20495;-80
2022/07/05 09:35:50;;;;;;;2.67;2.47;;;27.10;48.30;;;;;;4985255;28;20475;-83
2022/07/05 09:38:23;;;;;;;1.93;1.83;;;27.20;47.50;;;;;;5002453;28;20477;-81
2022/07/05 09:40:55;;;;;;;6.50;3.17;;;27.80;46.90;;;;;;5006330;28;20473;-85
2022/07/05 09:43:47;;;;;;;4.60;3.27;;;27.20;47.30;;;;;;5126682;27;1235100;-82
2022/07/05 09:46:28;;;;;;;4.93;3.80;;;26.70;47.70;;;;;;5140201;27;20468;-85
2022/07/05 09:48:55;;;;;;;2.90;2.60;;;26.10;49.10;;;;;;5124544;28;20464;-85
2022/07/05 09:51:22;;;;;;;3.23;2.33;;;26.60;48.90;;;;;;5144925;27;20469;-84
2022/07/05 09:54:09;;;;;;;4.63;1.80;;;27.00;47.70;;;;;;5133851;27;20429;-82
2022/07/05 09:56:48;;;;;;;28.37;6.80;;;27.20;46.90;;;;;;5145799;28;20467;-82
2022/07/05 09:59:20;;;;;;;20.23;3.70;;;28.60;44.40;;;;;;5134258;28;20436;-86
2022/07/05 10:01:47;;;;;;;2.80;2.10;;;28.80;43.60;;;;;;5151900;28;20461;-88
2022/07/05 10:04:14;;;;;;;3.73;2.80;;;29.00;43.50;;;;;;5130806;28;20444;-84
2022/07/05 10:06:42;;;;;;;5.80;2.50;;;28.80;43.40;;;;;;5142311;27;20513;-85
2022/07/05 10:09:10;;;;;;;2.50;2.30;;;28.30;44.20;;;;;;5147475;27;20508;-84
2022/07/05 10:11:43;;;;;;;2.40;2.10;;;28.10;44.20;;;;;;5125518;28;20453;-84
2022/07/05 10:14:16;;;;;;;2.27;2.07;;;28.20;44.30;;;;;;5143906;28;20499;-85
2022/07/05 10:16:56;;;;;;;5.80;2.20;;;28.90;43.10;;;;;;5142743;28;20476;-81
2022/07/05 10:19:29;;;;;;;1.93;1.73;;;29.10;42.80;;;;;;5127828;28;20440;-86
2022/07/05 10:21:56;;;;;;;2.03;1.80;;;30.00;41.20;;;;;;5124933;27;20487;-84
2022/07/05 10:24:44;;;;;;;2.00;1.70;;;30.90;40.40;;;;;;5144427;28;20421;-81
2022/07/05 10:27:13;;;;;;;3.00;2.03;;;31.60;40.00;;;;;;5146684;27;20457;-83
2022/07/05 10:29:40;;;;;;;5.63;2.13;;;31.10;40.30;;;;;;5144301;27;20914;-84
2022/07/05 10:32:09;;;;;;;2.47;2.27;;;30.00;41.50;;;;;;5137036;28;20767;-83
2022/07/05 10:34:37;;;;;;;2.80;2.00;;;29.70;42.50;;;;;;5128097;28;20483;-80
2022/07/05 10:37:25;;;;;;;4.07;2.10;;;29.40;42.60;;;;;;5126048;27;20487;-84
2022/07/05 10:39:52;;;;;;;1.73;1.60;;;29.30;42.20;;;;;;5131011;28;20452;-84
2022/07/05 10:42:20;;;;;;;2.20;2.00;;;29.80;41.30;;;;;;5129031;27;20472;-83
2022/07/05 10:44:46;;;;;;;2.40;1.53;;;29.60;41.40;;;;;;5125062;27;20437;-82
2022/07/05 10:47:13;;;;;;;3.57;3.27;;;29.30;41.60;;;;;;5141028;27;20453;-82
2022/07/05 10:49:40;;;;;;;2.40;2.00;;;28.50;42.10;;;;;;5126989;28;20453;-84
2022/07/05 10:52:24;;;;;;;2.17;2.07;;;27.70;43.00;;;;;;5145964;27;20539;-86
2022/07/05 10:55:23;;;;;;;2.57;2.37;;;26.70;44.50;;;;;;5133247;27;20588;-83
2022/07/05 10:58:19;;;;;;;6.43;2.10;;;26.60;45.60;;;;;;5112708;28;21000;-83
2022/07/05 11:00:48;;;;;;;6.17;3.40;;;26.20;46.10;;;;;;5117202;27;20449;-81
2022/07/05 11:03:36;;;;;;;2.10;1.90;;;26.10;47.20;;;;;;5100136;28;20556;-85
2022/07/05 11:06:07;;;;;;;2.80;2.00;;;26.20;47.30;;;;;;5131090;27;20505;-83
2022/07/05 11:09:03;;;;;;;6.97;2.27;;;26.90;46.00;;;;;;5130938;28;20436;-84
2022/07/05 11:11:35;;;;;;;3.10;2.10;;;27.90;44.60;;;;;;5097173;28;20450;-84
2022/07/05 11:14:29;;;;;;;3.20;1.90;;;28.50;42.80;;;;;;5117654;27;20444;-84
2022/07/05 11:17:08;;;;;;;3.20;1.77;;;28.60;42.00;;;;;;5122339;28;20492;-84
2022/07/05 11:19:59;;;;;;;3.60;2.00;;;28.80;42.10;;;;;;5128595;28;20505;-83
2022/07/05 11:22:26;;;;;;;3.63;2.10;;;29.30;42.50;;;;;;5110832;28;20509;-83
2022/07/05 11:24:54;;;;;;;2.07;1.80;;;29.20;41.80;;;;;;5125890;28;20441;-85
2022/07/05 11:27:21;;;;;;;4.77;1.73;;;29.20;41.90;;;;;;5110546;28;20521;-82
2022/07/05 11:29:50;;;;;;;2.60;1.87;;;29.30;41.80;;;;;;5128730;27;20448;-81
2022/07/05 11:32:29;;;;;;;1.80;1.70;;;29.80;41.00;;;;;;5102331;28;20518;-83
2022/07/05 11:35:15;;;;;;;2.07;1.80;;;29.80;41.00;;;;;;5125455;27;20452;-84
2022/07/05 11:38:04;;;;;;;1.67;1.53;;;29.50;41.00;;;;;;5123659;27;20471;-82
2022/07/05 11:40:51;;;;;;;1.90;1.80;;;28.90;42.50;;;;;;5118776;28;20468;-79
2022/07/05 11:43:28;;;;;;;4.13;2.23;;;28.70;43.80;;;;;;5127768;27;20477;-83
2022/07/05 11:45:57;;;;;;;2.90;2.27;;;28.30;44.20;;;;;;5106519;28;20465;-85
2022/07/05 11:48:25;;;;;;;2.30;1.70;;;28.00;44.70;;;;;;5104940;28;20454;-84
2022/07/05 11:50:52;;;;;;;2.60;1.97;;;28.10;44.80;;;;;;5112097;27;20492;-82
2022/07/05 11:53:31;;;;;;;3.33;1.67;;;28.10;43.10;;;;;;5111075;28;20537;-82
2022/07/05 11:56:18;;;;;;;3.73;2.10;;;28.50;42.60;;;;;;5111228;28;20466;-81
2022/07/05 11:58:45;;;;;;;2.07;1.53;;;28.80;42.40;;;;;;5131176;28;20452;-83
2022/07/05 12:01:11;;;;;;;1.57;1.47;;;29.70;40.90;;;;;;5118651;28;20867;-85
2022/07/05 12:03:41;;;;;;;2.87;1.80;;;30.50;39.80;;;;;;5133182;27;20477;-78
2022/07/05 12:06:17;;;;;;;2.73;1.80;;;29.90;39.40;;;;;;5124028;28;20528;-82
2022/07/05 12:08:44;;;;;;;4.50;1.70;;;29.90;40.90;;;;;;5099789;28;20445;-83
2022/07/05 12:13:58;;;;;;;3.10;1.63;;;30.50;39.60;;;;;;5123446;27;20450;-83
2022/07/05 12:16:25;;;;;;;2.53;1.60;;;30.30;39.60;;;;;;5127306;27;20500;-82
2022/07/05 12:18:55;;;;;;;1.80;1.70;;;29.80;39.80;;;;;;5107593;28;20456;-82
2022/07/05 12:21:23;;;;;;;3.40;2.23;;;29.50;39.60;;;;;;5132065;27;21033;-83
2022/07/05 12:23:50;;;;;;;2.40;1.60;;;28.90;41.00;;;;;;5111036;28;20544;-84
2022/07/05 12:26:19;;;;;;;1.77;1.33;;;28.70;41.10;;;;;;5116410;27;20476;-83
2022/07/05 12:28:46;;;;;;;3.37;1.40;;;28.80;41.00;;;;;;5125738;28;20465;-85
2022/07/05 12:31:19;;;;;;;1.40;1.20;;;28.90;40.80;;;;;;5106177;28;20441;-81
2022/07/05 12:33:46;;;;;;;2.80;1.40;;;29.80;39.40;;;;;;5108078;28;21248;-81
2022/07/05 12:36:15;;;;;;;2.10;1.43;;;30.10;38.00;;;;;;5110833;27;20457;-83
2022/07/05 12:38:42;;;;;;;1.73;1.60;;;29.80;38.50;;;;;;5124100;27;20430;-80
2022/07/05 12:41:09;;;;;;;1.93;1.83;;;29.40;38.60;;;;;;5122637;28;20437;-80
2022/07/05 12:43:53;;;;;;;2.07;1.97;;;28.90;39.20;;;;;;5128424;27;20492;-80
2022/07/05 12:46:34;;;;;;;2.80;1.87;;;28.50;39.50;;;;;;5121816;28;20462;-80
2022/07/05 12:49:07;;;;;;;1.60;1.50;;;28.40;40.10;;;;;;5121392;28;21168;-83
2022/07/05 12:51:39;;;;;;;1.40;1.30;;;28.20;40.20;;;;;;5131075;27;20488;-85
2022/07/05 12:58:04;;;;;;;1.77;1.60;;;29.40;38.50;;;;;;5016439;28;20444;-84
2022/07/05 13:00:30;;;;;;;1.80;1.50;;;29.00;38.20;;;;;;5105537;28;20473;-86
2022/07/05 13:02:57;;;;;;;3.13;1.43;;;28.70;38.30;;;;;;5127104;28;20998;-84
2022/07/05 13:05:25;;;;;;;2.87;1.70;;;28.60;38.30;;;;;;5108289;28;20437;-82
2022/07/05 13:07:54;;;;;;;2.33;2.10;;;28.60;39.50;;;;;;5128701;27;20457;-84
2022/07/05 13:10:28;;;;;;;2.80;2.33;;;29.00;40.20;;;;;;5126541;28;20445;-82
2022/07/05 13:12:55;;;;;;;2.00;1.50;;;28.80;40.60;;;;;;5127080;28;20951;-83